sensor_id;sensor_type;location;lat;lon;timestamp;temperature;humidity
10282;DHT22;5186;59.472;18.048;2023-04-12T00:00:32;6.50;99.90
10282;DHT22;5186;59.472;18.048;2023-04-12T00:02:58;6.60;99.90
10282;DHT22;5186;59.472;18.048;2023-04-12T00:05:28;6.60;99.90
10282;DHT22;5186;59.472;18.048;2023-04-12T00:07:53;6.60;99.90
10282;DHT22;5186;59.472;18.048;2023-04-12T00:10:20;6.60;99.90
10282;DHT22;5186;59.472;18.048;2023-04-12T00:12:46;6.70;99.90
10282;DHT22;5186;59.472;18.048;2023-04-12T00:15:12;6.80;99.90
10282;DHT22;5186;59.472;18.048;2023-04-12T00:17:38;6.80;99.90
10282;DHT22;5186;59.472;18.048;2023-04-12T00:20:05;6.80;99.90
10282;DHT22;5186;59.472;18.048;2023-04-12T00:22:40;6.90;99.90
10282;DHT22;5186;59.472;18.048;2023-04-12T00:25:06;7.00;99.90
10282;DHT22;5186;59.472;18.048;2023-04-12T00:27:32;7.10;99.90
10282;DHT22;5186;59.472;18.048;2023-04-12T00:29:57;7.20;99.90
10282;DHT22;5186;59.472;18.048;2023-04-12T00:32:23;7.30;99.90
10282;DHT22;5186;59.472;18.048;2023-04-12T00:34:49;7.40;99.90
10282;DHT22;5186;59.472;18.048;2023-04-12T00:37:14;7.40;99.90
10282;DHT22;5186;59.472;18.048;2023-04-12T00:39:40;7.50;99.90
10282;DHT22;5186;59.472;18.048;2023-04-12T00:42:05;7.60;99.90
10282;DHT22;5186;59.472;18.048;2023-04-12T00:44:32;7.70;99.90
10282;DHT22;5186;59.472;18.048;2023-04-12T00:46:58;7.70;99.90
10282;DHT22;5186;59.472;18.048;2023-04-12T00:49:26;7.80;99.90
10282;DHT22;5186;59.472;18.048;2023-04-12T00:51:59;7.90;99.90
10282;DHT22;5186;59.472;18.048;2023-04-12T00:54:29;7.90;99.90
10282;DHT22;5186;59.472;18.048;2023-04-12T00:56:55;7.90;99.90
10282;DHT22;5186;59.472;18.048;2023-04-12T00:59:22;8.00;99.90
10282;DHT22;5186;59.472;18.048;2023-04-12T01:01:48;8.00;99.90
10282;DHT22;5186;59.472;18.048;2023-04-12T01:04:14;8.00;99.90
10282;DHT22;5186;59.472;18.048;2023-04-12T01:07:01;8.00;99.90
10282;DHT22;5186;59.472;18.048;2023-04-12T01:12:48;7.90;99.90
10282;DHT22;5186;59.472;18.048;2023-04-12T01:15:18;7.80;99.90
10282;DHT22;5186;59.472;18.048;2023-04-12T01:17:56;7.70;99.90
10282;DHT22;5186;59.472;18.048;2023-04-12T01:20:30;7.70;99.90
10282;DHT22;5186;59.472;18.048;2023-04-12T01:25:58;7.60;99.90
10282;DHT22;5186;59.472;18.048;2023-04-12T01:28:33;7.50;99.90
10282;DHT22;5186;59.472;18.048;2023-04-12T01:31:03;7.50;99.90
10282;DHT22;5186;59.472;18.048;2023-04-12T01:33:33;7.40;99.90
10282;DHT22;5186;59.472;18.048;2023-04-12T01:36:07;7.40;99.90
10282;DHT22;5186;59.472;18.048;2023-04-12T01:38:33;7.30;99.90
10282;DHT22;5186;59.472;18.048;2023-04-12T01:40:59;7.30;99.90
10282;DHT22;5186;59.472;18.048;2023-04-12T01:43:25;7.30;99.90
10282;DHT22;5186;59.472;18.048;2023-04-12T01:45:51;7.30;99.90
10282;DHT22;5186;59.472;18.048;2023-04-12T01:48:17;7.20;99.90
10282;DHT22;5186;59.472;18.048;2023-04-12T01:51:04;7.30;99.90
10282;DHT22;5186;59.472;18.048;2023-04-12T01:55:58;7.20;99.90
10282;DHT22;5186;59.472;18.048;2023-04-12T01:58:28;7.20;99.90
10282;DHT22;5186;59.472;18.048;2023-04-12T02:00:55;7.20;99.90
10282;DHT22;5186;59.472;18.048;2023-04-12T02:03:22;7.20;99.90
10282;DHT22;5186;59.472;18.048;2023-04-12T02:05:49;7.10;99.90
10282;DHT22;5186;59.472;18.048;2023-04-12T02:08:16;7.10;99.90
10282;DHT22;5186;59.472;18.048;2023-04-12T02:10:41;7.10;99.90
10282;DHT22;5186;59.472;18.048;2023-04-12T02:13:07;7.10;99.90
10282;DHT22;5186;59.472;18.048;2023-04-12T02:15:32;7.10;99.90
10282;DHT22;5186;59.472;18.048;2023-04-12T02:17:58;7.10;99.90
10282;DHT22;5186;59.472;18.048;2023-04-12T02:20:25;7.10;99.90
10282;DHT22;5186;59.472;18.048;2023-04-12T02:22:50;7.00;99.90
10282;DHT22;5186;59.472;18.048;2023-04-12T02:25:16;7.00;99.90
10282;DHT22;5186;59.472;18.048;2023-04-12T02:27:43;7.00;99.90
10282;DHT22;5186;59.472;18.048;2023-04-12T02:30:09;6.90;99.90
10282;DHT22;5186;59.472;18.048;2023-04-12T02:32:35;6.80;99.90
10282;DHT22;5186;59.472;18.048;2023-04-12T02:35:09;6.80;99.90
10282;DHT22;5186;59.472;18.048;2023-04-12T02:37:35;6.70;99.90
10282;DHT22;5186;59.472;18.048;2023-04-12T02:40:01;6.60;99.90
10282;DHT22;5186;59.472;18.048;2023-04-12T02:42:29;6.60;99.90
10282;DHT22;5186;59.472;18.048;2023-04-12T02:44:54;6.50;99.90
10282;DHT22;5186;59.472;18.048;2023-04-12T02:47:20;6.50;99.90
10282;DHT22;5186;59.472;18.048;2023-04-12T02:49:46;6.40;99.90
10282;DHT22;5186;59.472;18.048;2023-04-12T02:52:11;6.40;99.90
10282;DHT22;5186;59.472;18.048;2023-04-12T02:54:37;6.30;99.90
10282;DHT22;5186;59.472;18.048;2023-04-12T02:57:03;6.30;99.90
10282;DHT22;5186;59.472;18.048;2023-04-12T02:59:29;6.20;99.90
10282;DHT22;5186;59.472;18.048;2023-04-12T03:01:55;6.10;99.90
10282;DHT22;5186;59.472;18.048;2023-04-12T03:04:20;6.00;99.90
10282;DHT22;5186;59.472;18.048;2023-04-12T03:06:47;6.00;99.90
10282;DHT22;5186;59.472;18.048;2023-04-12T03:09:18;5.90;99.90
10282;DHT22;5186;59.472;18.048;2023-04-12T03:11:45;5.90;99.90
10282;DHT22;5186;59.472;18.048;2023-04-12T03:14:11;5.90;99.90
10282;DHT22;5186;59.472;18.048;2023-04-12T03:16:36;5.90;99.90
10282;DHT22;5186;59.472;18.048;2023-04-12T03:19:02;5.90;99.90
10282;DHT22;5186;59.472;18.048;2023-04-12T03:21:28;5.80;99.90
10282;DHT22;5186;59.472;18.048;2023-04-12T03:23:54;5.80;99.90
10282;DHT22;5186;59.472;18.048;2023-04-12T03:26:20;5.80;99.90
10282;DHT22;5186;59.472;18.048;2023-04-12T03:28:46;5.90;99.90
10282;DHT22;5186;59.472;18.048;2023-04-12T03:31:12;5.90;99.90
10282;DHT22;5186;59.472;18.048;2023-04-12T03:33:38;6.00;99.90
10282;DHT22;5186;59.472;18.048;2023-04-12T03:36:04;6.00;99.90
10282;DHT22;5186;59.472;18.048;2023-04-12T03:38:30;6.10;99.90
10282;DHT22;5186;59.472;18.048;2023-04-12T03:40:56;6.10;99.90
10282;DHT22;5186;59.472;18.048;2023-04-12T03:43:21;6.10;99.90
10282;DHT22;5186;59.472;18.048;2023-04-12T03:45:47;6.10;99.90
10282;DHT22;5186;59.472;18.048;2023-04-12T03:48:13;6.10;99.90
10282;DHT22;5186;59.472;18.048;2023-04-12T03:50:40;6.10;99.90
10282;DHT22;5186;59.472;18.048;2023-04-12T03:53:09;6.20;99.90
10282;DHT22;5186;59.472;18.048;2023-04-12T03:55:35;6.20;99.90
10282;DHT22;5186;59.472;18.048;2023-04-12T03:58:02;6.20;99.90
10282;DHT22;5186;59.472;18.048;2023-04-12T04:00:29;6.20;99.90
10282;DHT22;5186;59.472;18.048;2023-04-12T04:02:56;6.20;99.90
10282;DHT22;5186;59.472;18.048;2023-04-12T04:05:27;6.20;99.90
10282;DHT22;5186;59.472;18.048;2023-04-12T04:07:54;6.30;99.90
10282;DHT22;5186;59.472;18.048;2023-04-12T04:10:20;6.30;99.90
10282;DHT22;5186;59.472;18.048;2023-04-12T04:12:46;6.30;99.90
10282;DHT22;5186;59.472;18.048;2023-04-12T04:15:13;6.30;99.90
10282;DHT22;5186;59.472;18.048;2023-04-12T04:17:39;6.30;99.90
10282;DHT22;5186;59.472;18.048;2023-04-12T04:20:05;6.40;99.90
10282;DHT22;5186;59.472;18.048;2023-04-12T04:22:32;6.40;99.90
10282;DHT22;5186;59.472;18.048;2023-04-12T04:24:58;6.40;99.90
10282;DHT22;5186;59.472;18.048;2023-04-12T04:27:25;6.40;99.90
10282;DHT22;5186;59.472;18.048;2023-04-12T04:29:54;6.50;99.90
10282;DHT22;5186;59.472;18.048;2023-04-12T04:32:22;6.50;99.90
10282;DHT22;5186;59.472;18.048;2023-04-12T04:34:49;6.60;99.90
10282;DHT22;5186;59.472;18.048;2023-04-12T04:37:15;6.60;99.90
10282;DHT22;5186;59.472;18.048;2023-04-12T04:39:41;6.60;99.90
10282;DHT22;5186;59.472;18.048;2023-04-12T04:42:07;6.60;99.90
10282;DHT22;5186;59.472;18.048;2023-04-12T04:44:33;6.70;99.90
10282;DHT22;5186;59.472;18.048;2023-04-12T04:47:00;6.70;99.90
10282;DHT22;5186;59.472;18.048;2023-04-12T04:49:25;6.70;99.90
10282;DHT22;5186;59.472;18.048;2023-04-12T04:51:51;6.70;99.90
10282;DHT22;5186;59.472;18.048;2023-04-12T04:54:17;6.70;99.90
10282;DHT22;5186;59.472;18.048;2023-04-12T04:56:43;6.70;99.90
10282;DHT22;5186;59.472;18.048;2023-04-12T04:59:08;6.80;99.90
10282;DHT22;5186;59.472;18.048;2023-04-12T05:01:34;6.80;99.90
10282;DHT22;5186;59.472;18.048;2023-04-12T05:04:01;6.80;99.90
10282;DHT22;5186;59.472;18.048;2023-04-12T05:06:26;6.80;99.90
10282;DHT22;5186;59.472;18.048;2023-04-12T05:08:52;6.80;99.90
10282;DHT22;5186;59.472;18.048;2023-04-12T05:11:18;6.90;99.90
10282;DHT22;5186;59.472;18.048;2023-04-12T05:13:44;6.90;99.90
10282;DHT22;5186;59.472;18.048;2023-04-12T05:16:10;6.90;99.90
10282;DHT22;5186;59.472;18.048;2023-04-12T05:18:36;7.00;99.90
10282;DHT22;5186;59.472;18.048;2023-04-12T05:21:05;7.00;99.90
10282;DHT22;5186;59.472;18.048;2023-04-12T05:23:41;7.10;99.90
10282;DHT22;5186;59.472;18.048;2023-04-12T05:26:07;7.10;99.90
10282;DHT22;5186;59.472;18.048;2023-04-12T05:28:32;7.10;99.90
10282;DHT22;5186;59.472;18.048;2023-04-12T05:30:58;7.20;99.90
10282;DHT22;5186;59.472;18.048;2023-04-12T05:33:24;7.20;99.90
10282;DHT22;5186;59.472;18.048;2023-04-12T05:35:49;7.30;99.90
10282;DHT22;5186;59.472;18.048;2023-04-12T05:38:15;7.30;99.90
10282;DHT22;5186;59.472;18.048;2023-04-12T05:40:41;7.30;99.90
10282;DHT22;5186;59.472;18.048;2023-04-12T05:43:08;7.40;99.90
10282;DHT22;5186;59.472;18.048;2023-04-12T05:45:40;7.40;99.90
10282;DHT22;5186;59.472;18.048;2023-04-12T05:48:06;7.40;99.90
10282;DHT22;5186;59.472;18.048;2023-04-12T05:50:32;7.40;99.90
10282;DHT22;5186;59.472;18.048;2023-04-12T05:52:59;7.50;99.90
10282;DHT22;5186;59.472;18.048;2023-04-12T05:55:29;7.50;99.90
10282;DHT22;5186;59.472;18.048;2023-04-12T05:57:55;7.50;99.90
10282;DHT22;5186;59.472;18.048;2023-04-12T06:00:20;7.60;99.90
10282;DHT22;5186;59.472;18.048;2023-04-12T06:02:47;7.60;99.90
10282;DHT22;5186;59.472;18.048;2023-04-12T06:05:13;7.70;99.90
10282;DHT22;5186;59.472;18.048;2023-04-12T06:07:41;7.70;99.90
10282;DHT22;5186;59.472;18.048;2023-04-12T06:10:13;7.70;99.90
10282;DHT22;5186;59.472;18.048;2023-04-12T06:12:39;7.80;99.90
10282;DHT22;5186;59.472;18.048;2023-04-12T06:15:05;7.80;99.90
10282;DHT22;5186;59.472;18.048;2023-04-12T06:17:31;7.80;99.90
10282;DHT22;5186;59.472;18.048;2023-04-12T06:19:56;7.90;99.90
10282;DHT22;5186;59.472;18.048;2023-04-12T06:22:22;7.90;99.90
10282;DHT22;5186;59.472;18.048;2023-04-12T06:24:48;8.00;99.90
10282;DHT22;5186;59.472;18.048;2023-04-12T06:27:13;8.00;99.90
10282;DHT22;5186;59.472;18.048;2023-04-12T06:29:39;8.00;99.90
10282;DHT22;5186;59.472;18.048;2023-04-12T06:32:04;8.10;99.90
10282;DHT22;5186;59.472;18.048;2023-04-12T06:34:30;8.10;99.90
10282;DHT22;5186;59.472;18.048;2023-04-12T06:36:56;8.20;99.90
10282;DHT22;5186;59.472;18.048;2023-04-12T06:39:21;8.20;99.90
10282;DHT22;5186;59.472;18.048;2023-04-12T06:41:47;8.30;99.90
10282;DHT22;5186;59.472;18.048;2023-04-12T06:44:15;8.30;99.90
10282;DHT22;5186;59.472;18.048;2023-04-12T06:46:40;8.40;99.90
10282;DHT22;5186;59.472;18.048;2023-04-12T06:49:06;8.40;99.90
10282;DHT22;5186;59.472;18.048;2023-04-12T06:51:32;8.40;99.90
10282;DHT22;5186;59.472;18.048;2023-04-12T06:53:59;8.50;99.90
10282;DHT22;5186;59.472;18.048;2023-04-12T06:56:25;8.60;99.90
10282;DHT22;5186;59.472;18.048;2023-04-12T06:58:50;8.70;99.90
10282;DHT22;5186;59.472;18.048;2023-04-12T07:01:16;8.70;99.90
10282;DHT22;5186;59.472;18.048;2023-04-12T07:03:42;8.70;99.90
10282;DHT22;5186;59.472;18.048;2023-04-12T07:06:07;8.80;99.90
10282;DHT22;5186;59.472;18.048;2023-04-12T07:08:34;8.90;99.90
10282;DHT22;5186;59.472;18.048;2023-04-12T07:11:00;8.90;99.90
10282;DHT22;5186;59.472;18.048;2023-04-12T07:13:26;9.00;99.90
10282;DHT22;5186;59.472;18.048;2023-04-12T07:15:51;9.00;99.90
10282;DHT22;5186;59.472;18.048;2023-04-12T07:18:19;9.10;99.90
10282;DHT22;5186;59.472;18.048;2023-04-12T07:20:47;9.20;99.90
10282;DHT22;5186;59.472;18.048;2023-04-12T07:23:15;9.20;99.90
10282;DHT22;5186;59.472;18.048;2023-04-12T07:25:41;9.30;99.90
10282;DHT22;5186;59.472;18.048;2023-04-12T07:28:06;9.40;99.90
10282;DHT22;5186;59.472;18.048;2023-04-12T07:30:32;9.40;99.90
10282;DHT22;5186;59.472;18.048;2023-04-12T07:32:57;9.50;99.90
10282;DHT22;5186;59.472;18.048;2023-04-12T07:35:25;9.60;99.90
10282;DHT22;5186;59.472;18.048;2023-04-12T07:37:52;9.70;99.90
10282;DHT22;5186;59.472;18.048;2023-04-12T07:40:18;9.70;99.90
10282;DHT22;5186;59.472;18.048;2023-04-12T07:42:43;9.80;99.90
10282;DHT22;5186;59.472;18.048;2023-04-12T07:45:09;9.90;99.90
10282;DHT22;5186;59.472;18.048;2023-04-12T07:47:35;10.00;99.90
10282;DHT22;5186;59.472;18.048;2023-04-12T07:50:00;10.00;99.90
10282;DHT22;5186;59.472;18.048;2023-04-12T07:52:26;10.10;99.90
10282;DHT22;5186;59.472;18.048;2023-04-12T07:54:52;10.20;99.90
10282;DHT22;5186;59.472;18.048;2023-04-12T07:57:18;10.20;99.90
10282;DHT22;5186;59.472;18.048;2023-04-12T07:59:44;10.30;99.90
10282;DHT22;5186;59.472;18.048;2023-04-12T08:02:10;10.30;99.90
10282;DHT22;5186;59.472;18.048;2023-04-12T08:04:35;10.30;99.90
10282;DHT22;5186;59.472;18.048;2023-04-12T08:07:02;10.40;99.90
10282;DHT22;5186;59.472;18.048;2023-04-12T08:09:28;10.50;99.90
10282;DHT22;5186;59.472;18.048;2023-04-12T08:11:54;10.50;99.90
10282;DHT22;5186;59.472;18.048;2023-04-12T08:14:21;10.60;99.90
10282;DHT22;5186;59.472;18.048;2023-04-12T08:16:46;10.70;99.90
10282;DHT22;5186;59.472;18.048;2023-04-12T08:19:13;10.70;99.90
10282;DHT22;5186;59.472;18.048;2023-04-12T08:21:38;10.80;99.90
10282;DHT22;5186;59.472;18.048;2023-04-12T08:24:04;10.90;99.90
10282;DHT22;5186;59.472;18.048;2023-04-12T08:26:30;11.00;99.90
10282;DHT22;5186;59.472;18.048;2023-04-12T08:28:56;11.10;99.90
10282;DHT22;5186;59.472;18.048;2023-04-12T08:31:22;11.10;99.90
10282;DHT22;5186;59.472;18.048;2023-04-12T08:33:48;11.20;99.90
10282;DHT22;5186;59.472;18.048;2023-04-12T08:36:13;11.30;99.90
10282;DHT22;5186;59.472;18.048;2023-04-12T08:38:40;11.30;99.90
10282;DHT22;5186;59.472;18.048;2023-04-12T08:41:06;11.40;99.90
10282;DHT22;5186;59.472;18.048;2023-04-12T08:43:33;11.50;99.90
10282;DHT22;5186;59.472;18.048;2023-04-12T08:45:59;11.60;99.90
10282;DHT22;5186;59.472;18.048;2023-04-12T08:48:26;11.60;99.90
10282;DHT22;5186;59.472;18.048;2023-04-12T08:50:52;11.60;99.90
10282;DHT22;5186;59.472;18.048;2023-04-12T08:53:19;11.60;99.90
10282;DHT22;5186;59.472;18.048;2023-04-12T08:55:44;11.70;99.90
10282;DHT22;5186;59.472;18.048;2023-04-12T08:58:13;11.70;99.90
10282;DHT22;5186;59.472;18.048;2023-04-12T09:00:40;11.80;99.90
10282;DHT22;5186;59.472;18.048;2023-04-12T09:03:05;11.90;99.90
10282;DHT22;5186;59.472;18.048;2023-04-12T09:05:31;11.90;99.90
10282;DHT22;5186;59.472;18.048;2023-04-12T09:07:57;12.00;99.90
10282;DHT22;5186;59.472;18.048;2023-04-12T09:10:32;12.00;99.90
10282;DHT22;5186;59.472;18.048;2023-04-12T09:12:59;12.10;99.90
10282;DHT22;5186;59.472;18.048;2023-04-12T09:15:24;12.20;99.90
10282;DHT22;5186;59.472;18.048;2023-04-12T09:18:08;12.20;99.90
10282;DHT22;5186;59.472;18.048;2023-04-12T09:20:35;12.30;99.90
10282;DHT22;5186;59.472;18.048;2023-04-12T09:23:18;12.30;99.90
10282;DHT22;5186;59.472;18.048;2023-04-12T09:25:44;12.40;99.90
10282;DHT22;5186;59.472;18.048;2023-04-12T09:28:20;12.40;99.90
10282;DHT22;5186;59.472;18.048;2023-04-12T09:30:46;12.40;99.90
10282;DHT22;5186;59.472;18.048;2023-04-12T09:36:00;12.60;99.90
10282;DHT22;5186;59.472;18.048;2023-04-12T09:38:27;12.60;99.90
10282;DHT22;5186;59.472;18.048;2023-04-12T09:40:53;12.70;99.90
10282;DHT22;5186;59.472;18.048;2023-04-12T09:43:19;12.70;99.90
10282;DHT22;5186;59.472;18.048;2023-04-12T09:46:13;12.80;99.90
10282;DHT22;5186;59.472;18.048;2023-04-12T09:48:39;12.90;99.90
10282;DHT22;5186;59.472;18.048;2023-04-12T09:51:06;12.90;99.90
10282;DHT22;5186;59.472;18.048;2023-04-12T09:53:33;13.00;99.90
10282;DHT22;5186;59.472;18.048;2023-04-12T09:56:02;13.00;99.90
10282;DHT22;5186;59.472;18.048;2023-04-12T09:58:30;13.10;99.90
10282;DHT22;5186;59.472;18.048;2023-04-12T10:00:58;13.10;99.90
10282;DHT22;5186;59.472;18.048;2023-04-12T10:03:25;13.10;99.90
10282;DHT22;5186;59.472;18.048;2023-04-12T10:05:53;13.20;99.90
10282;DHT22;5186;59.472;18.048;2023-04-12T10:08:21;13.20;99.90
10282;DHT22;5186;59.472;18.048;2023-04-12T10:10:46;13.30;99.90
10282;DHT22;5186;59.472;18.048;2023-04-12T10:13:13;13.30;99.90
10282;DHT22;5186;59.472;18.048;2023-04-12T10:15:39;13.30;99.90
10282;DHT22;5186;59.472;18.048;2023-04-12T10:18:06;13.40;99.90
10282;DHT22;5186;59.472;18.048;2023-04-12T10:20:32;13.40;99.90
10282;DHT22;5186;59.472;18.048;2023-04-12T10:22:58;13.50;99.90
10282;DHT22;5186;59.472;18.048;2023-04-12T10:25:25;13.50;99.90
10282;DHT22;5186;59.472;18.048;2023-04-12T10:27:52;13.50;99.90
10282;DHT22;5186;59.472;18.048;2023-04-12T10:35:28;13.70;99.90
10282;DHT22;5186;59.472;18.048;2023-04-12T10:38:00;13.70;99.90
10282;DHT22;5186;59.472;18.048;2023-04-12T10:40:30;13.70;99.90
10282;DHT22;5186;59.472;18.048;2023-04-12T10:45:47;13.90;99.90
10282;DHT22;5186;59.472;18.048;2023-04-12T10:48:33;13.90;99.90
10282;DHT22;5186;59.472;18.048;2023-04-12T10:51:18;13.80;99.90
10282;DHT22;5186;59.472;18.048;2023-04-12T10:53:50;13.80;99.90
10282;DHT22;5186;59.472;18.048;2023-04-12T10:59:00;13.90;99.90
10282;DHT22;5186;59.472;18.048;2023-04-12T11:01:27;13.90;99.90
10282;DHT22;5186;59.472;18.048;2023-04-12T11:04:15;14.00;99.90
10282;DHT22;5186;59.472;18.048;2023-04-12T11:06:58;14.10;99.90
10282;DHT22;5186;59.472;18.048;2023-04-12T11:14:47;14.00;99.90
10282;DHT22;5186;59.472;18.048;2023-04-12T11:22:11;14.30;99.90
10282;DHT22;5186;59.472;18.048;2023-04-12T11:24:43;14.30;99.90
10282;DHT22;5186;59.472;18.048;2023-04-12T11:27:09;14.30;99.90
10282;DHT22;5186;59.472;18.048;2023-04-12T11:29:35;14.40;99.90
10282;DHT22;5186;59.472;18.048;2023-04-12T11:32:05;14.40;99.90
10282;DHT22;5186;59.472;18.048;2023-04-12T11:34:32;14.40;99.90
10282;DHT22;5186;59.472;18.048;2023-04-12T11:36:58;14.40;99.90
10282;DHT22;5186;59.472;18.048;2023-04-12T11:39:25;14.40;99.90
10282;DHT22;5186;59.472;18.048;2023-04-12T11:41:51;14.40;99.90
10282;DHT22;5186;59.472;18.048;2023-04-12T11:44:17;14.40;99.90
10282;DHT22;5186;59.472;18.048;2023-04-12T11:46:44;14.50;99.90
10282;DHT22;5186;59.472;18.048;2023-04-12T11:49:13;14.50;99.90
10282;DHT22;5186;59.472;18.048;2023-04-12T11:51:40;14.60;99.90
10282;DHT22;5186;59.472;18.048;2023-04-12T11:54:06;14.60;99.90
10282;DHT22;5186;59.472;18.048;2023-04-12T11:56:31;14.60;99.90
10282;DHT22;5186;59.472;18.048;2023-04-12T11:58:57;14.60;99.90
10282;DHT22;5186;59.472;18.048;2023-04-12T12:01:23;14.70;99.90
10282;DHT22;5186;59.472;18.048;2023-04-12T12:03:49;14.70;99.90
10282;DHT22;5186;59.472;18.048;2023-04-12T12:06:15;14.90;99.90
10282;DHT22;5186;59.472;18.048;2023-04-12T12:08:42;14.90;99.90
10282;DHT22;5186;59.472;18.048;2023-04-12T12:11:08;14.90;99.90
10282;DHT22;5186;59.472;18.048;2023-04-12T12:14:06;14.90;99.90
10282;DHT22;5186;59.472;18.048;2023-04-12T12:16:32;14.90;99.90
10282;DHT22;5186;59.472;18.048;2023-04-12T12:19:02;14.80;99.90
10282;DHT22;5186;59.472;18.048;2023-04-12T12:21:29;14.90;99.90
10282;DHT22;5186;59.472;18.048;2023-04-12T12:23:56;14.90;99.90
10282;DHT22;5186;59.472;18.048;2023-04-12T12:26:26;15.00;99.90
10282;DHT22;5186;59.472;18.048;2023-04-12T12:28:56;15.00;99.90
10282;DHT22;5186;59.472;18.048;2023-04-12T12:31:24;15.00;99.90
10282;DHT22;5186;59.472;18.048;2023-04-12T12:33:57;15.00;99.90
10282;DHT22;5186;59.472;18.048;2023-04-12T12:36:34;15.00;99.90
10282;DHT22;5186;59.472;18.048;2023-04-12T12:39:06;15.10;99.90
10282;DHT22;5186;59.472;18.048;2023-04-12T12:41:34;15.10;99.90
10282;DHT22;5186;59.472;18.048;2023-04-12T12:44:00;15.20;99.90
10282;DHT22;5186;59.472;18.048;2023-04-12T12:46:26;15.20;99.90
10282;DHT22;5186;59.472;18.048;2023-04-12T12:48:52;15.20;99.90
10282;DHT22;5186;59.472;18.048;2023-04-12T12:51:18;15.30;99.90
10282;DHT22;5186;59.472;18.048;2023-04-12T12:53:46;15.20;99.90
10282;DHT22;5186;59.472;18.048;2023-04-12T12:56:13;15.30;99.90
10282;DHT22;5186;59.472;18.048;2023-04-12T12:58:39;15.30;99.90
10282;DHT22;5186;59.472;18.048;2023-04-12T13:01:05;15.40;99.90
10282;DHT22;5186;59.472;18.048;2023-04-12T13:03:32;15.50;99.90
10282;DHT22;5186;59.472;18.048;2023-04-12T13:05:58;15.50;99.90
10282;DHT22;5186;59.472;18.048;2023-04-12T13:08:24;15.50;99.90
10282;DHT22;5186;59.472;18.048;2023-04-12T13:10:50;15.60;99.90
10282;DHT22;5186;59.472;18.048;2023-04-12T13:13:16;15.60;99.90
10282;DHT22;5186;59.472;18.048;2023-04-12T13:15:42;15.70;99.90
10282;DHT22;5186;59.472;18.048;2023-04-12T13:18:08;15.70;99.90
10282;DHT22;5186;59.472;18.048;2023-04-12T13:20:33;15.70;99.90
10282;DHT22;5186;59.472;18.048;2023-04-12T13:22:59;15.70;99.90
10282;DHT22;5186;59.472;18.048;2023-04-12T13:25:27;15.80;99.90
10282;DHT22;5186;59.472;18.048;2023-04-12T13:27:53;15.80;99.90
10282;DHT22;5186;59.472;18.048;2023-04-12T13:30:18;15.70;99.90
10282;DHT22;5186;59.472;18.048;2023-04-12T13:32:44;15.70;99.90
10282;DHT22;5186;59.472;18.048;2023-04-12T13:35:10;15.80;99.90
10282;DHT22;5186;59.472;18.048;2023-04-12T13:37:36;15.80;99.90
10282;DHT22;5186;59.472;18.048;2023-04-12T13:40:02;15.70;99.90
10282;DHT22;5186;59.472;18.048;2023-04-12T13:42:28;15.80;99.90
10282;DHT22;5186;59.472;18.048;2023-04-12T13:44:54;15.80;99.90
10282;DHT22;5186;59.472;18.048;2023-04-12T13:47:19;15.80;99.90
10282;DHT22;5186;59.472;18.048;2023-04-12T13:49:45;15.80;99.90
10282;DHT22;5186;59.472;18.048;2023-04-12T13:52:11;15.70;99.90
10282;DHT22;5186;59.472;18.048;2023-04-12T13:54:37;15.70;99.90
10282;DHT22;5186;59.472;18.048;2023-04-12T13:57:03;15.60;99.90
10282;DHT22;5186;59.472;18.048;2023-04-12T13:59:29;15.60;99.90
10282;DHT22;5186;59.472;18.048;2023-04-12T14:01:55;15.60;99.90
10282;DHT22;5186;59.472;18.048;2023-04-12T14:04:21;15.60;99.90
10282;DHT22;5186;59.472;18.048;2023-04-12T14:06:46;15.50;99.90
10282;DHT22;5186;59.472;18.048;2023-04-12T14:09:30;15.50;99.90
10282;DHT22;5186;59.472;18.048;2023-04-12T14:11:57;15.50;99.90
10282;DHT22;5186;59.472;18.048;2023-04-12T14:14:24;15.50;99.90
10282;DHT22;5186;59.472;18.048;2023-04-12T14:16:51;15.50;99.90
10282;DHT22;5186;59.472;18.048;2023-04-12T14:19:18;15.50;99.90
10282;DHT22;5186;59.472;18.048;2023-04-12T14:21:44;15.50;99.90
10282;DHT22;5186;59.472;18.048;2023-04-12T14:24:09;15.30;99.90
10282;DHT22;5186;59.472;18.048;2023-04-12T14:26:35;15.20;99.90
10282;DHT22;5186;59.472;18.048;2023-04-12T14:29:04;15.20;99.90
10282;DHT22;5186;59.472;18.048;2023-04-12T14:31:30;15.10;99.90
10282;DHT22;5186;59.472;18.048;2023-04-12T14:33:56;15.00;99.90
10282;DHT22;5186;59.472;18.048;2023-04-12T14:36:21;14.90;99.90
10282;DHT22;5186;59.472;18.048;2023-04-12T14:38:47;14.90;99.90
10282;DHT22;5186;59.472;18.048;2023-04-12T14:41:14;14.90;99.90
10282;DHT22;5186;59.472;18.048;2023-04-12T14:43:39;14.90;99.90
10282;DHT22;5186;59.472;18.048;2023-04-12T14:46:06;14.90;99.90
10282;DHT22;5186;59.472;18.048;2023-04-12T14:48:31;14.90;99.90
10282;DHT22;5186;59.472;18.048;2023-04-12T14:50:57;15.00;99.90
10282;DHT22;5186;59.472;18.048;2023-04-12T14:53:23;15.10;99.90
10282;DHT22;5186;59.472;18.048;2023-04-12T14:55:48;15.10;99.90
10282;DHT22;5186;59.472;18.048;2023-04-12T14:58:15;15.10;99.90
10282;DHT22;5186;59.472;18.048;2023-04-12T15:00:40;15.00;99.90
10282;DHT22;5186;59.472;18.048;2023-04-12T15:03:06;14.90;99.90
10282;DHT22;5186;59.472;18.048;2023-04-12T15:05:32;14.90;99.90
10282;DHT22;5186;59.472;18.048;2023-04-12T15:07:58;14.90;99.90
10282;DHT22;5186;59.472;18.048;2023-04-12T15:10:24;14.90;99.90
10282;DHT22;5186;59.472;18.048;2023-04-12T15:12:50;14.80;99.90
10282;DHT22;5186;59.472;18.048;2023-04-12T15:15:15;14.70;99.90
10282;DHT22;5186;59.472;18.048;2023-04-12T15:17:41;14.60;99.90
10282;DHT22;5186;59.472;18.048;2023-04-12T15:20:07;14.60;99.90
10282;DHT22;5186;59.472;18.048;2023-04-12T15:22:41;14.50;99.90
10282;DHT22;5186;59.472;18.048;2023-04-12T15:25:08;14.50;99.90
10282;DHT22;5186;59.472;18.048;2023-04-12T15:27:35;14.40;99.90
10282;DHT22;5186;59.472;18.048;2023-04-12T15:30:03;14.40;99.90
10282;DHT22;5186;59.472;18.048;2023-04-12T15:32:36;14.40;99.90
10282;DHT22;5186;59.472;18.048;2023-04-12T15:35:02;14.30;99.90
10282;DHT22;5186;59.472;18.048;2023-04-12T15:37:31;14.20;99.90
10282;DHT22;5186;59.472;18.048;2023-04-12T15:39:59;14.10;99.90
10282;DHT22;5186;59.472;18.048;2023-04-12T15:42:25;14.00;99.90
10282;DHT22;5186;59.472;18.048;2023-04-12T15:44:51;14.00;99.90
10282;DHT22;5186;59.472;18.048;2023-04-12T15:47:17;13.80;99.90
10282;DHT22;5186;59.472;18.048;2023-04-12T15:49:42;13.70;99.90
10282;DHT22;5186;59.472;18.048;2023-04-12T15:52:08;13.60;99.90
10282;DHT22;5186;59.472;18.048;2023-04-12T15:54:33;13.50;99.90
10282;DHT22;5186;59.472;18.048;2023-04-12T15:56:59;13.50;99.90
10282;DHT22;5186;59.472;18.048;2023-04-12T15:59:33;13.50;99.90
10282;DHT22;5186;59.472;18.048;2023-04-12T16:01:59;13.50;99.90
10282;DHT22;5186;59.472;18.048;2023-04-12T16:04:25;13.50;99.90
10282;DHT22;5186;59.472;18.048;2023-04-12T16:06:51;13.40;99.90
10282;DHT22;5186;59.472;18.048;2023-04-12T16:09:17;13.30;99.90